sensor_id;sensor_type;location;lat;lon;timestamp;pressure;altitude;pressure_sealevel;temperature;humidity
57048;BME280;42934;54.294;18.598;2024-01-07T00:00:34;101319.28;;;-0.05;64.25
57048;BME280;42934;54.294;18.598;2024-01-07T00:03:23;101325.31;;;-0.05;64.14
57048;BME280;42934;54.294;18.598;2024-01-07T00:05:52;101328.69;;;-0.07;64.90
57048;BME280;42934;54.294;18.598;2024-01-07T00:08:23;101338.03;;;-0.12;62.71
57048;BME280;42934;54.294;18.598;2024-01-07T00:10:52;101335.44;;;-0.12;64.72
57048;BME280;42934;54.294;18.598;2024-01-07T00:13:22;101332.00;;;-0.13;64.83
57048;BME280;42934;54.294;18.598;2024-01-07T00:15:51;101331.00;;;-0.19;63.49
57048;BME280;42934;54.294;18.598;2024-01-07T00:18:22;101337.03;;;-0.19;64.47
57048;BME280;42934;54.294;18.598;2024-01-07T00:20:52;101335.38;;;-0.15;65.44
57048;BME280;42934;54.294;18.598;2024-01-07T00:23:23;101340.41;;;-0.23;64.64
57048;BME280;42934;54.294;18.598;2024-01-07T00:25:51;101343.94;;;-0.18;65.45
57048;BME280;42934;54.294;18.598;2024-01-07T00:28:21;101355.22;;;-0.14;65.57
57048;BME280;42934;54.294;18.598;2024-01-07T00:30:50;101352.59;;;-0.16;64.94
57048;BME280;42934;54.294;18.598;2024-01-07T00:33:19;101344.91;;;-0.13;65.42
57048;BME280;42934;54.294;18.598;2024-01-07T00:35:48;101350.91;;;-0.14;64.90
57048;BME280;42934;54.294;18.598;2024-01-07T00:38:18;101353.56;;;-0.11;65.41
57048;BME280;42934;54.294;18.598;2024-01-07T00:40:48;101354.44;;;-0.10;65.61
57048;BME280;42934;54.294;18.598;2024-01-07T00:43:18;101360.50;;;-0.08;65.25
57048;BME280;42934;54.294;18.598;2024-01-07T00:45:47;101354.44;;;-0.10;65.36
57048;BME280;42934;54.294;18.598;2024-01-07T00:48:16;101359.53;;;-0.13;64.68
57048;BME280;42934;54.294;18.598;2024-01-07T00:50:46;101358.59;;;-0.17;65.60
57048;BME280;42934;54.294;18.598;2024-01-07T00:53:15;101363.75;;;-0.17;65.24
57048;BME280;42934;54.294;18.598;2024-01-07T00:55:44;101366.16;;;-0.25;64.87
57048;BME280;42934;54.294;18.598;2024-01-07T00:58:15;101361.03;;;-0.23;65.70
57048;BME280;42934;54.294;18.598;2024-01-07T01:00:44;101358.47;;;-0.21;65.83
57048;BME280;42934;54.294;18.598;2024-01-07T01:03:13;101368.84;;;-0.20;65.72
57048;BME280;42934;54.294;18.598;2024-01-07T01:05:43;101369.75;;;-0.18;65.12
57048;BME280;42934;54.294;18.598;2024-01-07T01:08:12;101372.31;;;-0.19;65.67
57048;BME280;42934;54.294;18.598;2024-01-07T01:10:42;101368.00;;;-0.20;65.41
57048;BME280;42934;54.294;18.598;2024-01-07T01:13:13;101368.81;;;-0.21;65.90
57048;BME280;42934;54.294;18.598;2024-01-07T01:15:42;101377.97;;;-0.34;64.17
57048;BME280;42934;54.294;18.598;2024-01-07T01:18:12;101385.66;;;-0.37;64.62
57048;BME280;42934;54.294;18.598;2024-01-07T01:20:41;101379.63;;;-0.36;65.12
57048;BME280;42934;54.294;18.598;2024-01-07T01:23:11;101378.00;;;-0.33;65.34
57048;BME280;42934;54.294;18.598;2024-01-07T01:25:40;101380.66;;;-0.30;65.44
57048;BME280;42934;54.294;18.598;2024-01-07T01:28:10;101385.00;;;-0.29;65.27
57048;BME280;42934;54.294;18.598;2024-01-07T01:30:40;101383.28;;;-0.28;65.48
57048;BME280;42934;54.294;18.598;2024-01-07T01:33:10;101391.03;;;-0.27;65.26
57048;BME280;42934;54.294;18.598;2024-01-07T01:35:39;101386.63;;;-0.32;64.85
57048;BME280;42934;54.294;18.598;2024-01-07T01:38:08;101389.16;;;-0.34;65.69
57048;BME280;42934;54.294;18.598;2024-01-07T01:40:37;101392.63;;;-0.33;65.07
57048;BME280;42934;54.294;18.598;2024-01-07T01:43:07;101386.56;;;-0.35;65.12
57048;BME280;42934;54.294;18.598;2024-01-07T01:45:36;101387.44;;;-0.35;65.55
57048;BME280;42934;54.294;18.598;2024-01-07T01:48:07;101390.03;;;-0.33;65.66
57048;BME280;42934;54.294;18.598;2024-01-07T01:50:37;101383.16;;;-0.33;65.78
57048;BME280;42934;54.294;18.598;2024-01-07T01:53:06;101384.81;;;-0.36;65.44
57048;BME280;42934;54.294;18.598;2024-01-07T01:55:35;101388.22;;;-0.37;65.58
57048;BME280;42934;54.294;18.598;2024-01-07T01:58:05;101390.69;;;-0.42;65.08
57048;BME280;42934;54.294;18.598;2024-01-07T02:00:34;101393.28;;;-0.42;65.85
57048;BME280;42934;54.294;18.598;2024-01-07T02:03:05;101398.47;;;-0.40;65.20
57048;BME280;42934;54.294;18.598;2024-01-07T02:05:35;101397.50;;;-0.46;65.71
57048;BME280;42934;54.294;18.598;2024-01-07T02:08:05;101400.84;;;-0.48;65.92
57048;BME280;42934;54.294;18.598;2024-01-07T02:10:34;101394.88;;;-0.47;65.54
57048;BME280;42934;54.294;18.598;2024-01-07T02:13:08;101402.56;;;-0.49;65.16
57048;BME280;42934;54.294;18.598;2024-01-07T02:15:37;101397.47;;;-0.47;65.92
57048;BME280;42934;54.294;18.598;2024-01-07T02:18:08;101408.66;;;-0.45;65.63
57048;BME280;42934;54.294;18.598;2024-01-07T02:20:37;101403.50;;;-0.47;65.57
57048;BME280;42934;54.294;18.598;2024-01-07T02:23:06;101412.59;;;-0.61;64.96
57048;BME280;42934;54.294;18.598;2024-01-07T02:25:37;101408.09;;;-0.68;65.17
57048;BME280;42934;54.294;18.598;2024-01-07T02:28:07;101414.34;;;-0.93;64.66
57048;BME280;42934;54.294;18.598;2024-01-07T02:30:36;101416.13;;;-1.22;64.18
57048;BME280;42934;54.294;18.598;2024-01-07T02:33:06;101416.66;;;-1.34;65.48
57048;BME280;42934;54.294;18.598;2024-01-07T02:35:36;101412.34;;;-1.35;65.50
57048;BME280;42934;54.294;18.598;2024-01-07T02:38:05;101418.81;;;-1.78;65.37
57048;BME280;42934;54.294;18.598;2024-01-07T02:40:34;101415.81;;;-1.63;66.33
57048;BME280;42934;54.294;18.598;2024-01-07T02:43:05;101419.19;;;-1.35;66.44
57048;BME280;42934;54.294;18.598;2024-01-07T02:45:34;101426.50;;;-1.19;66.10
57048;BME280;42934;54.294;18.598;2024-01-07T02:48:04;101425.91;;;-1.10;65.80
57048;BME280;42934;54.294;18.598;2024-01-07T02:50:35;101424.41;;;-1.32;64.85
57048;BME280;42934;54.294;18.598;2024-01-07T02:53:04;101424.69;;;-1.53;65.41
57048;BME280;42934;54.294;18.598;2024-01-07T02:55:35;101429.72;;;-1.87;66.50
57048;BME280;42934;54.294;18.598;2024-01-07T02:58:06;101425.75;;;-2.04;67.19
57048;BME280;42934;54.294;18.598;2024-01-07T03:00:35;101428.72;;;-2.19;66.99
57048;BME280;42934;54.294;18.598;2024-01-07T03:03:04;101430.28;;;-1.97;67.31
57048;BME280;42934;54.294;18.598;2024-01-07T03:05:34;101428.47;;;-1.71;66.79
57048;BME280;42934;54.294;18.598;2024-01-07T03:08:03;101428.69;;;-1.63;66.58
57048;BME280;42934;54.294;18.598;2024-01-07T03:10:32;101424.41;;;-1.63;66.21
57048;BME280;42934;54.294;18.598;2024-01-07T03:13:02;101424.47;;;-1.61;66.51
57048;BME280;42934;54.294;18.598;2024-01-07T03:15:32;101417.28;;;-1.43;66.24
57048;BME280;42934;54.294;18.598;2024-01-07T03:18:02;101419.75;;;-1.46;65.81
57048;BME280;42934;54.294;18.598;2024-01-07T03:20:31;101419.91;;;-1.41;66.24
57048;BME280;42934;54.294;18.598;2024-01-07T03:23:01;101420.00;;;-1.37;66.06
57048;BME280;42934;54.294;18.598;2024-01-07T03:25:30;101424.03;;;-1.46;65.66
57048;BME280;42934;54.294;18.598;2024-01-07T03:27:59;101425.56;;;-1.53;65.90
57048;BME280;42934;54.294;18.598;2024-01-07T03:30:28;101429.03;;;-1.51;66.18
57048;BME280;42934;54.294;18.598;2024-01-07T03:32:59;101421.41;;;-1.48;66.18
57048;BME280;42934;54.294;18.598;2024-01-07T03:35:28;101424.25;;;-1.39;66.20
57048;BME280;42934;54.294;18.598;2024-01-07T03:37:58;101430.47;;;-1.32;66.31
57048;BME280;42934;54.294;18.598;2024-01-07T03:40:27;101428.44;;;-1.42;66.17
57048;BME280;42934;54.294;18.598;2024-01-07T03:42:56;101434.88;;;-1.56;66.26
57048;BME280;42934;54.294;18.598;2024-01-07T03:45:25;101440.00;;;-1.58;66.29
57048;BME280;42934;54.294;18.598;2024-01-07T03:47:55;101447.97;;;-2.06;65.22
57048;BME280;42934;54.294;18.598;2024-01-07T03:50:25;101446.22;;;-1.80;66.76
57048;BME280;42934;54.294;18.598;2024-01-07T03:52:55;101451.00;;;-1.64;66.77
57048;BME280;42934;54.294;18.598;2024-01-07T03:55:24;101452.94;;;-1.85;64.98
57048;BME280;42934;54.294;18.598;2024-01-07T03:57:53;101454.72;;;-2.10;65.22
57048;BME280;42934;54.294;18.598;2024-01-07T04:00:22;101449.25;;;-1.93;66.33
57048;BME280;42934;54.294;18.598;2024-01-07T04:02:51;101446.94;;;-1.84;66.47
57048;BME280;42934;54.294;18.598;2024-01-07T04:05:20;101447.28;;;-1.73;66.24
57048;BME280;42934;54.294;18.598;2024-01-07T04:07:51;101460.34;;;-1.67;66.52
57048;BME280;42934;54.294;18.598;2024-01-07T04:10:20;101449.78;;;-1.76;66.16
57048;BME280;42934;54.294;18.598;2024-01-07T04:12:49;101450.06;;;-1.66;66.44
57048;BME280;42934;54.294;18.598;2024-01-07T04:15:18;101451.22;;;-1.56;66.33
57048;BME280;42934;54.294;18.598;2024-01-07T04:17:48;101453.59;;;-1.62;65.89
57048;BME280;42934;54.294;18.598;2024-01-07T04:20:17;101447.91;;;-1.80;66.21
57048;BME280;42934;54.294;18.598;2024-01-07T04:22:46;101456.00;;;-1.68;66.60
57048;BME280;42934;54.294;18.598;2024-01-07T04:25:17;101455.63;;;-1.80;66.58
57048;BME280;42934;54.294;18.598;2024-01-07T04:27:46;101461.75;;;-1.77;66.79
57048;BME280;42934;54.294;18.598;2024-01-07T04:30:15;101462.25;;;-1.89;65.89
57048;BME280;42934;54.294;18.598;2024-01-07T04:32:45;101464.56;;;-1.69;66.58
57048;BME280;42934;54.294;18.598;2024-01-07T04:35:14;101462.25;;;-1.60;66.48
57048;BME280;42934;54.294;18.598;2024-01-07T04:37:43;101453.91;;;-1.53;66.46
57048;BME280;42934;54.294;18.598;2024-01-07T04:40:13;101460.91;;;-1.47;66.60
57048;BME280;42934;54.294;18.598;2024-01-07T04:42:43;101460.13;;;-1.45;66.31
57048;BME280;42934;54.294;18.598;2024-01-07T04:45:13;101457.66;;;-1.42;66.35
57048;BME280;42934;54.294;18.598;2024-01-07T04:47:42;101457.16;;;-1.58;65.51
57048;BME280;42934;54.294;18.598;2024-01-07T04:50:11;101459.00;;;-2.10;66.00
57048;BME280;42934;54.294;18.598;2024-01-07T04:52:42;101466.91;;;-2.31;67.81
57048;BME280;42934;54.294;18.598;2024-01-07T04:55:11;101477.47;;;-2.23;68.33
57048;BME280;42934;54.294;18.598;2024-01-07T04:57:40;101475.69;;;-1.97;67.69
57048;BME280;42934;54.294;18.598;2024-01-07T05:00:12;101470.97;;;-1.85;67.27
57048;BME280;42934;54.294;18.598;2024-01-07T05:02:41;101470.25;;;-1.79;66.72
57048;BME280;42934;54.294;18.598;2024-01-07T05:05:10;101471.25;;;-1.74;66.43
57048;BME280;42934;54.294;18.598;2024-01-07T05:07:39;101471.41;;;-1.70;66.41
57048;BME280;42934;54.294;18.598;2024-01-07T05:10:09;101480.03;;;-1.68;66.38
57048;BME280;42934;54.294;18.598;2024-01-07T05:12:38;101478.38;;;-1.67;66.22
57048;BME280;42934;54.294;18.598;2024-01-07T05:15:10;101486.13;;;-1.66;66.21
57048;BME280;42934;54.294;18.598;2024-01-07T05:17:39;101495.56;;;-1.66;65.98
57048;BME280;42934;54.294;18.598;2024-01-07T05:20:09;101486.72;;;-1.74;64.86
57048;BME280;42934;54.294;18.598;2024-01-07T05:22:39;101487.56;;;-1.74;65.68
57048;BME280;42934;54.294;18.598;2024-01-07T05:25:08;101494.41;;;-1.76;65.30
57048;BME280;42934;54.294;18.598;2024-01-07T05:27:37;101506.25;;;-1.81;65.55
57048;BME280;42934;54.294;18.598;2024-01-07T05:30:07;101505.91;;;-1.92;64.36
57048;BME280;42934;54.294;18.598;2024-01-07T05:32:38;101512.72;;;-2.19;61.20
57048;BME280;42934;54.294;18.598;2024-01-07T05:35:07;101519.06;;;-2.35;62.58
57048;BME280;42934;54.294;18.598;2024-01-07T05:37:37;101533.03;;;-2.27;63.96
57048;BME280;42934;54.294;18.598;2024-01-07T05:40:07;101528.94;;;-2.22;64.45
57048;BME280;42934;54.294;18.598;2024-01-07T05:42:37;101530.13;;;-2.38;61.26
57048;BME280;42934;54.294;18.598;2024-01-07T05:45:06;101527.19;;;-2.48;61.77
57048;BME280;42934;54.294;18.598;2024-01-07T05:47:35;101530.72;;;-2.70;61.56
57048;BME280;42934;54.294;18.598;2024-01-07T05:50:07;101533.75;;;-2.81;60.35
57048;BME280;42934;54.294;18.598;2024-01-07T05:52:37;101537.88;;;-2.62;62.80
57048;BME280;42934;54.294;18.598;2024-01-07T05:55:06;101541.13;;;-2.66;62.50
57048;BME280;42934;54.294;18.598;2024-01-07T05:57:36;101533.38;;;-2.67;62.41
57048;BME280;42934;54.294;18.598;2024-01-07T06:00:06;101541.00;;;-2.70;61.71
57048;BME280;42934;54.294;18.598;2024-01-07T06:02:39;101541.00;;;-2.70;62.28
57048;BME280;42934;54.294;18.598;2024-01-07T06:05:10;101543.59;;;-2.69;62.41
57048;BME280;42934;54.294;18.598;2024-01-07T06:07:40;101548.84;;;-2.66;62.65
57048;BME280;42934;54.294;18.598;2024-01-07T06:10:09;101554.59;;;-2.73;61.09
57048;BME280;42934;54.294;18.598;2024-01-07T06:12:38;101554.75;;;-2.68;62.44
57048;BME280;42934;54.294;18.598;2024-01-07T06:15:08;101555.91;;;-2.60;62.98
57048;BME280;42934;54.294;18.598;2024-01-07T06:17:38;101553.44;;;-2.57;62.73
57048;BME280;42934;54.294;18.598;2024-01-07T06:20:07;101554.50;;;-2.76;60.81
57048;BME280;42934;54.294;18.598;2024-01-07T06:22:38;101564.03;;;-2.73;62.42
57048;BME280;42934;54.294;18.598;2024-01-07T06:25:07;101566.94;;;-2.87;60.78
57048;BME280;42934;54.294;18.598;2024-01-07T06:27:38;101569.63;;;-2.84;62.14
57048;BME280;42934;54.294;18.598;2024-01-07T06:30:08;101571.47;;;-2.80;62.36
57048;BME280;42934;54.294;18.598;2024-01-07T06:32:38;101575.63;;;-2.83;61.74
57048;BME280;42934;54.294;18.598;2024-01-07T06:35:07;101573.81;;;-2.86;62.03
57048;BME280;42934;54.294;18.598;2024-01-07T06:37:38;101580.09;;;-2.79;62.59
57048;BME280;42934;54.294;18.598;2024-01-07T06:40:08;101582.56;;;-2.82;62.50
57048;BME280;42934;54.294;18.598;2024-01-07T06:42:39;101578.31;;;-2.80;62.74
57048;BME280;42934;54.294;18.598;2024-01-07T06:45:09;101576.13;;;-2.93;60.02
57048;BME280;42934;54.294;18.598;2024-01-07T06:47:38;101579.50;;;-2.94;60.98
57048;BME280;42934;54.294;18.598;2024-01-07T06:50:08;101581.72;;;-3.04;61.08
57048;BME280;42934;54.294;18.598;2024-01-07T06:52:39;101592.88;;;-3.03;61.94
57048;BME280;42934;54.294;18.598;2024-01-07T06:55:08;101595.81;;;-2.94;62.19
57048;BME280;42934;54.294;18.598;2024-01-07T06:57:38;101590.78;;;-2.91;61.98
57048;BME280;42934;54.294;18.598;2024-01-07T07:00:07;101591.47;;;-2.95;61.67
57048;BME280;42934;54.294;18.598;2024-01-07T07:02:37;101600.78;;;-2.99;61.10
57048;BME280;42934;54.294;18.598;2024-01-07T07:05:06;101599.44;;;-3.11;59.66
57048;BME280;42934;54.294;18.598;2024-01-07T07:07:39;101603.81;;;-3.09;60.70
57048;BME280;42934;54.294;18.598;2024-01-07T07:10:08;101614.03;;;-3.10;61.28
57048;BME280;42934;54.294;18.598;2024-01-07T07:12:38;101613.56;;;-3.23;60.15
57048;BME280;42934;54.294;18.598;2024-01-07T07:15:07;101620.78;;;-3.12;61.86
57048;BME280;42934;54.294;18.598;2024-01-07T07:17:38;101607.59;;;-3.22;61.21
57048;BME280;42934;54.294;18.598;2024-01-07T07:20:09;101619.28;;;-3.07;61.84
57048;BME280;42934;54.294;18.598;2024-01-07T07:22:40;101627.97;;;-3.04;61.70
57048;BME280;42934;54.294;18.598;2024-01-07T07:25:09;101627.19;;;-3.03;61.50
57048;BME280;42934;54.294;18.598;2024-01-07T07:27:38;101631.41;;;-3.03;61.43
57048;BME280;42934;54.294;18.598;2024-01-07T07:30:08;101631.97;;;-3.33;56.46
57048;BME280;42934;54.294;18.598;2024-01-07T07:32:40;101640.75;;;-3.28;60.08
57048;BME280;42934;54.294;18.598;2024-01-07T07:35:11;101642.44;;;-3.28;60.42
57048;BME280;42934;54.294;18.598;2024-01-07T07:37:42;101634.91;;;-3.24;61.29
57048;BME280;42934;54.294;18.598;2024-01-07T07:40:11;101635.94;;;-3.20;61.09
57048;BME280;42934;54.294;18.598;2024-01-07T07:42:41;101642.69;;;-3.22;60.98
57048;BME280;42934;54.294;18.598;2024-01-07T07:45:11;101640.03;;;-3.24;60.97
57048;BME280;42934;54.294;18.598;2024-01-07T07:47:40;101641.56;;;-3.29;60.39
57048;BME280;42934;54.294;18.598;2024-01-07T07:50:13;101648.53;;;-3.47;58.94
57048;BME280;42934;54.294;18.598;2024-01-07T07:52:44;101651.16;;;-3.67;59.48
57048;BME280;42934;54.294;18.598;2024-01-07T07:55:13;101647.03;;;-3.63;61.16
57048;BME280;42934;54.294;18.598;2024-01-07T07:57:42;101656.06;;;-3.52;61.02
57048;BME280;42934;54.294;18.598;2024-01-07T08:00:12;101660.06;;;-3.58;60.75
57048;BME280;42934;54.294;18.598;2024-01-07T08:02:42;101662.19;;;-3.48;61.26
57048;BME280;42934;54.294;18.598;2024-01-07T08:05:11;101658.88;;;-3.46;60.96
57048;BME280;42934;54.294;18.598;2024-01-07T08:07:40;101668.88;;;-3.52;60.90
57048;BME280;42934;54.294;18.598;2024-01-07T08:10:11;101673.31;;;-3.69;60.07
57048;BME280;42934;54.294;18.598;2024-01-07T08:12:40;101667.78;;;-3.58;61.28
57048;BME280;42934;54.294;18.598;2024-01-07T08:15:10;101673.06;;;-3.54;61.69
57048;BME280;42934;54.294;18.598;2024-01-07T08:17:40;101687.97;;;-3.45;61.75
57048;BME280;42934;54.294;18.598;2024-01-07T08:20:10;101690.63;;;-3.44;61.50
57048;BME280;42934;54.294;18.598;2024-01-07T08:22:39;101690.66;;;-3.42;61.59
57048;BME280;42934;54.294;18.598;2024-01-07T08:25:10;101689.94;;;-3.39;61.19
57048;BME280;42934;54.294;18.598;2024-01-07T08:27:41;101692.63;;;-3.36;61.46
57048;BME280;42934;54.294;18.598;2024-01-07T08:30:12;101696.00;;;-3.37;61.46
57048;BME280;42934;54.294;18.598;2024-01-07T08:32:42;101704.47;;;-3.40;61.28
57048;BME280;42934;54.294;18.598;2024-01-07T08:35:11;101707.84;;;-3.41;61.33
57048;BME280;42934;54.294;18.598;2024-01-07T08:37:43;101711.22;;;-3.42;61.30
57048;BME280;42934;54.294;18.598;2024-01-07T08:40:14;101711.03;;;-3.47;61.20
57048;BME280;42934;54.294;18.598;2024-01-07T08:42:45;101711.78;;;-3.49;60.63
57048;BME280;42934;54.294;18.598;2024-01-07T08:45:15;101718.63;;;-3.50;60.37
57048;BME280;42934;54.294;18.598;2024-01-07T08:47:44;101717.47;;;-3.56;60.73
57048;BME280;42934;54.294;18.598;2024-01-07T08:50:13;101719.91;;;-3.59;60.39
57048;BME280;42934;54.294;18.598;2024-01-07T08:52:43;101723.34;;;-3.59;60.68
57048;BME280;42934;54.294;18.598;2024-01-07T08:55:15;101722.56;;;-3.58;60.38
57048;BME280;42934;54.294;18.598;2024-01-07T08:57:51;101732.13;;;-3.54;60.04
57048;BME280;42934;54.294;18.598;2024-01-07T09:00:20;101726.19;;;-3.53;60.37
57048;BME280;42934;54.294;18.598;2024-01-07T09:02:54;101731.59;;;-3.66;59.89
57048;BME280;42934;54.294;18.598;2024-01-07T09:05:23;101733.22;;;-3.68;60.39
57048;BME280;42934;54.294;18.598;2024-01-07T09:07:53;101729.78;;;-3.69;60.39
57048;BME280;42934;54.294;18.598;2024-01-07T09:10:23;101734.91;;;-3.69;60.34
57048;BME280;42934;54.294;18.598;2024-01-07T09:12:53;101731.56;;;-3.68;60.77
57048;BME280;42934;54.294;18.598;2024-01-07T09:15:22;101728.22;;;-3.65;60.90
57048;BME280;42934;54.294;18.598;2024-01-07T09:17:52;101739.44;;;-3.63;60.98
57048;BME280;42934;54.294;18.598;2024-01-07T09:20:21;101733.44;;;-3.63;61.07
57048;BME280;42934;54.294;18.598;2024-01-07T09:22:50;101733.44;;;-3.63;60.58
57048;BME280;42934;54.294;18.598;2024-01-07T09:25:19;101730.13;;;-3.61;60.91
57048;BME280;42934;54.294;18.598;2024-01-07T09:27:50;101737.47;;;-3.69;60.59
57048;BME280;42934;54.294;18.598;2024-01-07T09:30:19;101735.13;;;-3.64;60.93
57048;BME280;42934;54.294;18.598;2024-01-07T09:32:48;101736.28;;;-3.77;60.38
57048;BME280;42934;54.294;18.598;2024-01-07T09:35:18;101729.25;;;-4.00;59.32
57048;BME280;42934;54.294;18.598;2024-01-07T09:37:47;101732.38;;;-3.88;61.35
57048;BME280;42934;54.294;18.598;2024-01-07T09:40:18;101731.34;;;-3.92;60.05
57048;BME280;42934;54.294;18.598;2024-01-07T09:42:49;101730.16;;;-4.00;60.40
57048;BME280;42934;54.294;18.598;2024-01-07T09:45:19;101733.53;;;-3.81;61.52
57048;BME280;42934;54.294;18.598;2024-01-07T09:47:50;101727.03;;;-3.93;61.37
57048;BME280;42934;54.294;18.598;2024-01-07T09:50:19;101729.13;;;-3.64;61.74
57048;BME280;42934;54.294;18.598;2024-01-07T09:52:49;101725.53;;;-3.47;62.03
57048;BME280;42934;54.294;18.598;2024-01-07T09:55:25;101723.44;;;-3.36;61.51
57048;BME280;42934;54.294;18.598;2024-01-07T09:57:57;101724.53;;;-3.72;59.70
57048;BME280;42934;54.294;18.598;2024-01-07T10:00:27;101731.09;;;-3.78;61.14
57048;BME280;42934;54.294;18.598;2024-01-07T10:02:58;101720.16;;;-3.94;61.60
57048;BME280;42934;54.294;18.598;2024-01-07T10:05:27;101723.72;;;-4.09;61.37
57048;BME280;42934;54.294;18.598;2024-01-07T10:07:57;101725.63;;;-4.62;61.84
57048;BME280;42934;54.294;18.598;2024-01-07T10:10:26;101714.50;;;-4.25;62.03
57048;BME280;42934;54.294;18.598;2024-01-07T10:12:57;101722.25;;;-4.24;60.64
57048;BME280;42934;54.294;18.598;2024-01-07T10:15:26;101724.72;;;-4.64;60.64
57048;BME280;42934;54.294;18.598;2024-01-07T10:17:56;101730.22;;;-4.37;61.99
57048;BME280;42934;54.294;18.598;2024-01-07T10:20:32;101722.31;;;-4.22;61.76
57048;BME280;42934;54.294;18.598;2024-01-07T10:23:02;101727.22;;;-4.27;60.88
57048;BME280;42934;54.294;18.598;2024-01-07T10:25:31;101730.81;;;-4.43;60.21
57048;BME280;42934;54.294;18.598;2024-01-07T10:28:03;101720.75;;;-4.19;61.27
57048;BME280;42934;54.294;18.598;2024-01-07T10:30:32;101724.66;;;-4.27;60.59
57048;BME280;42934;54.294;18.598;2024-01-07T10:33:01;101730.03;;;-4.03;61.19
57048;BME280;42934;54.294;18.598;2024-01-07T10:35:34;101730.81;;;-3.84;60.95
57048;BME280;42934;54.294;18.598;2024-01-07T10:38:04;101734.69;;;-4.14;59.64
57048;BME280;42934;54.294;18.598;2024-01-07T10:40:33;101722.38;;;-4.21;59.84
57048;BME280;42934;54.294;18.598;2024-01-07T10:43:03;101734.19;;;-4.44;60.00
57048;BME280;42934;54.294;18.598;2024-01-07T10:45:33;101732.59;;;-4.60;60.94
57048;BME280;42934;54.294;18.598;2024-01-07T10:48:05;101728.94;;;-4.65;60.92
57048;BME280;42934;54.294;18.598;2024-01-07T10:50:37;101725.34;;;-4.68;60.45
57048;BME280;42934;54.294;18.598;2024-01-07T10:53:10;101718.31;;;-4.54;61.04
57048;BME280;42934;54.294;18.598;2024-01-07T10:55:46;101720.47;;;-4.44;60.68
57048;BME280;42934;54.294;18.598;2024-01-07T10:58:20;101714.22;;;-4.31;61.06
57048;BME280;42934;54.294;18.598;2024-01-07T11:00:50;101710.53;;;-4.38;60.30
57048;BME280;42934;54.294;18.598;2024-01-07T11:03:27;101715.91;;;-4.32;59.87
57048;BME280;42934;54.294;18.598;2024-01-07T11:06:03;101713.69;;;-4.24;59.94
57048;BME280;42934;54.294;18.598;2024-01-07T11:08:39;101718.72;;;-4.45;60.12
57048;BME280;42934;54.294;18.598;2024-01-07T11:11:15;101717.78;;;-4.47;59.78
57048;BME280;42934;54.294;18.598;2024-01-07T11:13:46;101718.53;;;-4.50;59.96
57048;BME280;42934;54.294;18.598;2024-01-07T11:16:42;101712.22;;;-4.57;60.72
57048;BME280;42934;54.294;18.598;2024-01-07T11:19:13;101713.31;;;-4.51;61.23
57048;BME280;42934;54.294;18.598;2024-01-07T11:21:43;101716.28;;;-4.62;60.96
57048;BME280;42934;54.294;18.598;2024-01-07T11:24:38;101725.81;;;-4.95;61.31
57048;BME280;42934;54.294;18.598;2024-01-07T11:27:09;101723.66;;;-4.68;62.18
57048;BME280;42934;54.294;18.598;2024-01-07T11:29:40;101718.47;;;-4.69;61.42
57048;BME280;42934;54.294;18.598;2024-01-07T11:32:12;101716.84;;;-4.49;61.70
57048;BME280;42934;54.294;18.598;2024-01-07T11:34:43;101720.31;;;-4.47;61.46
57048;BME280;42934;54.294;18.598;2024-01-07T11:37:15;101719.16;;;-4.17;61.08
57048;BME280;42934;54.294;18.598;2024-01-07T11:39:46;101714.56;;;-4.04;60.11
57048;BME280;42934;54.294;18.598;2024-01-07T11:42:15;101715.69;;;-3.98;60.91
57048;BME280;42934;54.294;18.598;2024-01-07T11:44:51;101716.19;;;-4.26;59.54
57048;BME280;42934;54.294;18.598;2024-01-07T11:47:21;101717.72;;;-4.29;60.68
57048;BME280;42934;54.294;18.598;2024-01-07T11:49:51;101721.56;;;-4.59;60.74
57048;BME280;42934;54.294;18.598;2024-01-07T11:52:21;101715.16;;;-4.29;61.43
57048;BME280;42934;54.294;18.598;2024-01-07T11:54:51;101722.16;;;-4.45;59.93
57048;BME280;42934;54.294;18.598;2024-01-07T11:57:20;101727.13;;;-4.67;59.85
57048;BME280;42934;54.294;18.598;2024-01-07T11:59:52;101720.09;;;-4.34;60.85
57048;BME280;42934;54.294;18.598;2024-01-07T12:02:21;101727.50;;;-4.40;59.72
57048;BME280;42934;54.294;18.598;2024-01-07T12:04:50;101719.22;;;-4.15;60.08
57048;BME280;42934;54.294;18.598;2024-01-07T12:07:20;101720.91;;;-3.96;60.15
57048;BME280;42934;54.294;18.598;2024-01-07T12:09:56;101723.44;;;-3.77;60.10
57048;BME280;42934;54.294;18.598;2024-01-07T12:12:26;101725.72;;;-3.63;60.02
57048;BME280;42934;54.294;18.598;2024-01-07T12:14:57;101726.25;;;-3.51;59.84
57048;BME280;42934;54.294;18.598;2024-01-07T12:17:26;101729.19;;;-3.42;59.98
57048;BME280;42934;54.294;18.598;2024-01-07T12:19:57;101732.63;;;-3.42;59.54
57048;BME280;42934;54.294;18.598;2024-01-07T12:22:27;101733.69;;;-3.36;59.59
57048;BME280;42934;54.294;18.598;2024-01-07T12:25:03;101728.66;;;-3.35;59.57
57048;BME280;42934;54.294;18.598;2024-01-07T12:27:32;101724.63;;;-3.49;58.30
57048;BME280;42934;54.294;18.598;2024-01-07T12:30:05;101727.84;;;-3.53;58.24
57048;BME280;42934;54.294;18.598;2024-01-07T12:32:35;101720.59;;;-3.43;59.23
57048;BME280;42934;54.294;18.598;2024-01-07T12:35:06;101728.53;;;-3.38;59.23
57048;BME280;42934;54.294;18.598;2024-01-07T12:37:37;101728.81;;;-3.30;59.71
57048;BME280;42934;54.294;18.598;2024-01-07T12:40:07;101729.50;;;-3.55;56.45
57048;BME280;42934;54.294;18.598;2024-01-07T12:42:39;101725.75;;;-3.43;59.26
57048;BME280;42934;54.294;18.598;2024-01-07T12:45:15;101725.41;;;-3.50;58.78
57048;BME280;42934;54.294;18.598;2024-01-07T12:47:44;101723.84;;;-3.68;57.17
57048;BME280;42934;54.294;18.598;2024-01-07T12:50:15;101728.91;;;-3.69;58.96
57048;BME280;42934;54.294;18.598;2024-01-07T12:52:44;101725.72;;;-3.63;58.77
57048;BME280;42934;54.294;18.598;2024-01-07T12:55:14;101725.84;;;-3.60;59.09